createdAt,value
2023-04-03T00:00:43.422Z,997.61
2023-04-03T00:01:43.464Z,997.55
2023-04-03T00:02:43.522Z,997.57
2023-04-03T00:03:43.139Z,997.55
2023-04-03T00:04:43.336Z,997.55
2023-04-03T00:05:43.155Z,997.55
2023-04-03T00:06:43.306Z,997.55
2023-04-03T00:07:43.321Z,997.51
2023-04-03T00:08:44.047Z,997.53
2023-04-03T00:09:43.294Z,997.53
2023-04-03T00:10:44.009Z,997.53
2023-04-03T00:11:43.274Z,997.53
2023-04-03T00:12:43.278Z,997.55
2023-04-03T00:13:43.208Z,997.59
2023-04-03T00:14:43.951Z,997.57
2023-04-03T00:15:43.211Z,997.57
2023-04-03T00:16:43.952Z,997.59
2023-04-03T00:17:43.235Z,997.61
2023-04-03T00:18:43.904Z,997.61
2023-04-03T00:19:43.162Z,997.63
2023-04-03T00:20:43.160Z,997.61
2023-04-03T00:21:43.855Z,997.63
2023-04-03T00:22:43.842Z,997.65
2023-04-03T00:23:43.846Z,997.65
2023-04-03T00:24:43.815Z,997.67
2023-04-03T00:25:43.645Z,997.71
2023-04-03T00:26:43.067Z,997.69
2023-04-03T00:27:43.069Z,997.71
2023-04-03T00:28:43.004Z,997.71
2023-04-03T00:29:43.038Z,997.79
2023-04-03T00:30:43.011Z,997.71
2023-04-03T00:31:42.987Z,997.79
2023-04-03T00:32:43.056Z,997.79
2023-04-03T00:33:42.994Z,997.81
2023-04-03T00:34:42.947Z,997.71
2023-04-03T00:35:43.051Z,997.71
2023-04-03T00:36:42.913Z,997.69
2023-04-03T00:37:42.910Z,997.69
2023-04-03T00:38:42.912Z,997.69
2023-04-03T00:39:42.891Z,997.69
2023-04-03T00:40:42.869Z,997.69
2023-04-03T00:41:42.872Z,997.71
2023-04-03T00:42:43.572Z,997.69
2023-04-03T00:43:43.556Z,997.69
2023-04-03T00:44:42.348Z,997.67
2023-04-03T00:45:42.806Z,997.63
2023-04-03T00:46:43.472Z,997.63
2023-04-03T00:47:43.504Z,997.63
2023-04-03T00:48:42.752Z,997.63
2023-04-03T00:49:42.757Z,997.61
2023-04-03T00:50:42.737Z,997.59
2023-04-03T00:51:42.727Z,997.55
2023-04-03T00:52:42.718Z,997.55
2023-04-03T00:53:42.703Z,997.53
2023-04-03T00:54:42.672Z,997.47
2023-04-03T00:55:42.699Z,997.45
2023-04-03T00:56:42.657Z,997.45
2023-04-03T00:57:42.637Z,997.43
2023-04-03T00:58:42.646Z,997.43
2023-04-03T00:59:42.591Z,997.40
2023-04-03T01:00:42.606Z,997.38
2023-04-03T01:01:42.660Z,997.40
2023-04-03T01:02:42.371Z,997.41
2023-04-03T01:03:42.557Z,997.40
2023-04-03T01:04:42.405Z,997.41
2023-04-03T01:05:42.527Z,997.41
2023-04-03T01:06:42.518Z,997.41
2023-04-03T01:07:42.570Z,997.43
2023-04-03T01:08:42.514Z,997.43
2023-04-03T01:09:43.164Z,997.40
2023-04-03T01:10:42.458Z,997.41
2023-04-03T01:11:43.142Z,997.41
2023-04-03T01:12:46.504Z,997.40
2023-04-03T01:13:42.423Z,997.41
2023-04-03T01:14:44.426Z,997.43
2023-04-03T01:15:42.468Z,997.41
2023-04-03T01:16:41.655Z,997.40
2023-04-03T01:17:42.410Z,997.41
2023-04-03T01:18:42.377Z,997.41
2023-04-03T01:19:42.321Z,997.45
2023-04-03T01:20:42.333Z,997.43
2023-04-03T01:21:42.338Z,997.43
2023-04-03T01:22:42.304Z,997.43
2023-04-03T01:23:42.292Z,997.41
2023-04-03T01:24:42.269Z,997.41
2023-04-03T01:25:42.260Z,997.41
2023-04-03T01:26:42.251Z,997.43
2023-04-03T01:27:42.257Z,997.43
2023-04-03T01:28:42.246Z,997.43
2023-04-03T01:29:42.193Z,997.45
2023-04-03T01:30:42.263Z,997.43
2023-04-03T01:31:42.233Z,997.41
2023-04-03T01:32:42.243Z,997.41
2023-04-03T01:33:42.179Z,997.40
2023-04-03T01:34:42.118Z,997.40
2023-04-03T01:35:42.136Z,997.38
2023-04-03T01:36:42.119Z,997.38
2023-04-03T01:37:42.098Z,997.38
2023-04-03T01:38:42.090Z,997.36
2023-04-03T01:39:42.055Z,997.36
2023-04-03T01:40:42.747Z,997.38
2023-04-03T01:41:42.049Z,997.36
2023-04-03T01:42:42.057Z,997.38
2023-04-03T01:43:42.024Z,997.38
2023-04-03T01:44:42.039Z,997.36
2023-04-03T01:45:42.043Z,997.36
2023-04-03T01:46:42.660Z,997.34
2023-04-03T01:47:42.030Z,997.36
2023-04-03T01:48:41.977Z,997.34
2023-04-03T01:49:41.932Z,997.36
2023-04-03T01:50:42.594Z,997.36
2023-04-03T01:51:41.934Z,997.38
2023-04-03T01:52:42.577Z,997.40
2023-04-03T01:53:42.624Z,997.36
2023-04-03T01:54:41.892Z,997.38
2023-04-03T01:55:41.858Z,997.38
2023-04-03T01:56:41.850Z,997.36
2023-04-03T01:57:41.844Z,997.36
2023-04-03T01:58:41.821Z,997.38
2023-04-03T01:59:41.790Z,997.38
2023-04-03T02:00:41.793Z,997.36
2023-04-03T02:01:41.896Z,997.36
2023-04-03T02:02:41.832Z,997.34
2023-04-03T02:03:41.761Z,997.36
2023-04-03T02:04:41.463Z,997.32
2023-04-03T02:05:41.708Z,997.34
2023-04-03T02:06:41.710Z,997.32
2023-04-03T02:07:41.699Z,997.32
2023-04-03T02:08:41.679Z,997.32
2023-04-03T02:09:41.672Z,997.28
2023-04-03T02:10:41.630Z,997.30
2023-04-03T02:11:42.328Z,997.28
2023-04-03T02:12:41.628Z,997.28
2023-04-03T02:13:41.632Z,997.30
2023-04-03T02:14:41.408Z,997.34
2023-04-03T02:15:41.571Z,997.34
2023-04-03T02:16:42.378Z,997.32
2023-04-03T02:17:41.599Z,997.32
2023-04-03T02:18:41.562Z,997.32
2023-04-03T02:19:41.539Z,997.30
2023-04-03T02:20:41.410Z,997.30
2023-04-03T02:21:41.137Z,997.32
2023-04-03T02:22:41.508Z,997.32
2023-04-03T02:23:41.476Z,997.34
2023-04-03T02:24:41.464Z,997.34
2023-04-03T02:25:41.433Z,997.34
2023-04-03T02:26:41.441Z,997.34
2023-04-03T02:27:42.126Z,997.34
2023-04-03T02:28:41.412Z,997.34
2023-04-03T02:29:41.413Z,997.34
2023-04-03T02:30:42.169Z,997.36
2023-04-03T02:31:41.142Z,997.36
2023-04-03T02:32:42.179Z,997.36
2023-04-03T02:33:41.146Z,997.34
2023-04-03T02:34:42.074Z,997.38
2023-04-03T02:35:42.892Z,997.38
2023-04-03T02:36:41.308Z,997.38
2023-04-03T02:37:41.144Z,997.40
2023-04-03T02:38:42.057Z,997.40
2023-04-03T02:39:41.266Z,997.40
2023-04-03T02:40:41.989Z,997.40
2023-04-03T02:41:41.242Z,997.38
2023-04-03T02:42:41.946Z,997.38
2023-04-03T02:43:41.228Z,997.38
2023-04-03T02:44:41.945Z,997.38
2023-04-03T02:45:41.165Z,997.36
2023-04-03T02:46:41.181Z,997.32
2023-04-03T02:47:41.194Z,997.34
2023-04-03T02:48:41.146Z,997.36
2023-04-03T02:49:41.134Z,997.34
2023-04-03T02:50:41.827Z,997.32
2023-04-03T02:51:41.026Z,997.34
2023-04-03T02:52:41.105Z,997.30
2023-04-03T02:53:41.102Z,997.34
2023-04-03T02:54:41.069Z,997.32
2023-04-03T02:55:41.030Z,997.32
2023-04-03T02:56:41.060Z,997.30
2023-04-03T02:57:41.028Z,997.28
2023-04-03T02:58:41.727Z,997.28
2023-04-03T02:59:41.012Z,997.30
2023-04-03T03:00:40.976Z,997.32
2023-04-03T03:01:41.059Z,997.30
2023-04-03T03:02:40.996Z,997.28
2023-04-03T03:03:40.956Z,997.32
2023-04-03T03:04:40.982Z,997.32
2023-04-03T03:05:41.661Z,997.32
2023-04-03T03:06:41.886Z,997.30
2023-04-03T03:07:40.922Z,997.32
2023-04-03T03:08:40.883Z,997.30
2023-04-03T03:09:41.555Z,997.30
2023-04-03T03:10:40.827Z,997.28
2023-04-03T03:11:40.846Z,997.28
2023-04-03T03:12:40.829Z,997.28
2023-04-03T03:13:40.836Z,997.26
2023-04-03T03:14:40.802Z,997.26
2023-04-03T03:15:40.785Z,997.26
2023-04-03T03:16:40.830Z,997.26
2023-04-03T03:17:40.761Z,997.26
2023-04-03T03:18:40.750Z,997.24
2023-04-03T03:19:40.744Z,997.26
2023-04-03T03:20:40.724Z,997.26
2023-04-03T03:21:40.724Z,997.24
2023-04-03T03:22:40.672Z,997.22
2023-04-03T03:23:40.679Z,997.24
2023-04-03T03:24:40.450Z,997.22
2023-04-03T03:25:40.090Z,997.26
2023-04-03T03:26:40.639Z,997.28
2023-04-03T03:27:40.609Z,997.28
2023-04-03T03:28:39.913Z,997.28
2023-04-03T03:29:40.601Z,997.26
2023-04-03T03:30:41.257Z,997.26
2023-04-03T03:31:40.598Z,997.26
2023-04-03T03:32:40.653Z,997.26
2023-04-03T03:33:39.933Z,997.26
2023-04-03T03:34:40.537Z,997.24
2023-04-03T03:35:40.628Z,997.28
2023-04-03T03:36:40.529Z,997.28
2023-04-03T03:37:40.471Z,997.28
2023-04-03T03:38:40.518Z,997.32
2023-04-03T03:39:40.477Z,997.32
2023-04-03T03:40:39.719Z,997.34
2023-04-03T03:41:39.900Z,997.34
2023-04-03T03:42:40.467Z,997.30
2023-04-03T03:43:40.421Z,997.32
2023-04-03T03:44:40.396Z,997.34
2023-04-03T03:45:40.393Z,997.32
2023-04-03T03:46:40.471Z,997.34
2023-04-03T03:47:40.360Z,997.34
2023-04-03T03:48:40.377Z,997.36
2023-04-03T03:49:40.350Z,997.36
2023-04-03T03:50:40.317Z,997.34
2023-04-03T03:51:40.326Z,997.34
2023-04-03T03:52:40.264Z,997.34
2023-04-03T03:53:40.282Z,997.38
2023-04-03T03:54:40.302Z,997.38
2023-04-03T03:55:40.498Z,997.38
2023-04-03T03:56:40.918Z,997.38
2023-04-03T03:57:39.526Z,997.38
2023-04-03T03:58:40.219Z,997.36
2023-04-03T03:59:40.203Z,997.38
2023-04-03T04:00:40.188Z,997.38
2023-04-03T04:01:40.213Z,997.40
2023-04-03T04:02:40.210Z,997.40
2023-04-03T04:03:40.314Z,997.40
2023-04-03T04:04:40.137Z,997.41
2023-04-03T04:05:40.346Z,997.43
2023-04-03T04:06:40.108Z,997.40
2023-04-03T04:07:40.072Z,997.41
2023-04-03T04:08:40.754Z,997.41
2023-04-03T04:09:40.786Z,997.41
2023-04-03T04:10:40.064Z,997.43
2023-04-03T04:11:40.062Z,997.41
2023-04-03T04:12:40.720Z,997.41
2023-04-03T04:13:39.516Z,997.43
2023-04-03T04:14:39.999Z,997.41
2023-04-03T04:15:40.279Z,997.41
2023-04-03T04:16:40.015Z,997.43
2023-04-03T04:17:40.712Z,997.45
2023-04-03T04:18:40.177Z,997.43
2023-04-03T04:19:39.945Z,997.43
2023-04-03T04:20:39.917Z,997.41
2023-04-03T04:21:39.911Z,997.45
2023-04-03T04:22:40.618Z,997.45
2023-04-03T04:23:40.564Z,997.45
2023-04-03T04:24:40.040Z,997.43
2023-04-03T04:25:39.864Z,997.43
2023-04-03T04:26:39.858Z,997.45
2023-04-03T04:27:39.807Z,997.45
2023-04-03T04:28:40.493Z,997.49
2023-04-03T04:29:39.076Z,997.49
2023-04-03T04:30:39.816Z,997.47
2023-04-03T04:31:39.771Z,997.45
2023-04-03T04:32:39.454Z,997.49
2023-04-03T04:33:39.773Z,997.47
2023-04-03T04:34:39.495Z,997.49
2023-04-03T04:35:39.956Z,997.47
2023-04-03T04:36:39.767Z,997.49
2023-04-03T04:37:39.524Z,997.47
2023-04-03T04:38:39.675Z,997.45
2023-04-03T04:39:39.679Z,997.45
2023-04-03T04:40:39.651Z,997.43
2023-04-03T04:41:39.636Z,997.45
2023-04-03T04:42:39.613Z,997.43
2023-04-03T04:43:38.992Z,997.43
2023-04-03T04:44:39.600Z,997.45
2023-04-03T04:45:39.298Z,997.45
2023-04-03T04:46:39.658Z,997.45
2023-04-03T04:47:40.299Z,997.45
2023-04-03T04:48:39.247Z,997.49
2023-04-03T04:49:40.522Z,997.47
2023-04-03T04:50:40.243Z,997.47
2023-04-03T04:51:50.952Z,997.47
2023-04-03T04:52:40.470Z,997.49
2023-04-03T04:53:39.549Z,997.49
2023-04-03T04:54:39.482Z,997.51
2023-04-03T04:55:40.197Z,997.49
2023-04-03T04:56:40.165Z,997.47
2023-04-03T04:57:40.277Z,997.47
2023-04-03T04:58:39.631Z,997.47
2023-04-03T04:59:39.421Z,997.45
2023-04-03T05:00:40.129Z,997.45
2023-04-03T05:01:40.259Z,997.45
2023-04-03T05:02:40.171Z,997.47
2023-04-03T05:03:39.166Z,997.47
2023-04-03T05:04:40.111Z,997.45
2023-04-03T05:05:40.307Z,997.47
2023-04-03T05:06:39.323Z,997.47
2023-04-03T05:07:39.290Z,997.47
2023-04-03T05:08:39.305Z,997.45
2023-04-03T05:09:39.287Z,997.47
2023-04-03T05:10:39.249Z,997.51
2023-04-03T05:11:39.929Z,997.49
2023-04-03T05:12:39.236Z,997.49
2023-04-03T05:13:39.193Z,997.49
2023-04-03T05:14:39.237Z,997.51
2023-04-03T05:15:40.160Z,997.51
2023-04-03T05:16:39.173Z,997.51
2023-04-03T05:17:39.251Z,997.53
2023-04-03T05:18:39.155Z,997.53
2023-04-03T05:19:39.806Z,997.55
2023-04-03T05:20:39.157Z,997.55
2023-04-03T05:21:39.131Z,997.55
2023-04-03T05:22:39.767Z,997.51
2023-04-03T05:23:39.765Z,997.49
2023-04-03T05:24:39.067Z,997.53
2023-04-03T05:25:39.241Z,997.49
2023-04-03T05:26:39.724Z,997.49
2023-04-03T05:27:39.025Z,997.51
2023-04-03T05:28:39.721Z,997.51
2023-04-03T05:29:39.004Z,997.53
2023-04-03T05:30:39.031Z,997.51
2023-04-03T05:31:39.041Z,997.55
2023-04-03T05:32:39.730Z,997.57
2023-04-03T05:33:38.947Z,997.55
2023-04-03T05:34:38.940Z,997.55
2023-04-03T05:35:39.069Z,997.55
2023-04-03T05:36:38.918Z,997.57
2023-04-03T05:37:39.055Z,997.61
2023-04-03T05:38:38.896Z,997.61
2023-04-03T05:39:38.160Z,997.63
2023-04-03T05:40:38.846Z,997.65
2023-04-03T05:41:38.840Z,997.65
2023-04-03T05:42:38.833Z,997.67
2023-04-03T05:43:38.803Z,997.67
2023-04-03T05:44:38.562Z,997.67
2023-04-03T05:45:38.639Z,997.69
2023-04-03T05:46:38.566Z,997.67
2023-04-03T05:47:38.059Z,997.71
2023-04-03T05:48:38.050Z,997.69
2023-04-03T05:49:38.000Z,997.69
2023-04-03T05:50:38.716Z,997.69
2023-04-03T05:51:38.709Z,997.69
2023-04-03T05:52:38.007Z,997.67
2023-04-03T05:53:38.705Z,997.69
2023-04-03T05:54:38.674Z,997.71
2023-04-03T05:55:38.284Z,997.69
2023-04-03T05:56:37.924Z,997.69
2023-04-03T05:57:38.737Z,997.71
2023-04-03T05:58:38.585Z,997.69
2023-04-03T05:59:38.593Z,997.79
2023-04-03T06:00:39.311Z,997.79
2023-04-03T06:01:38.562Z,997.81
2023-04-03T06:02:38.664Z,997.83
2023-04-03T06:03:38.731Z,997.85
2023-04-03T06:04:37.979Z,997.85
2023-04-03T06:05:39.534Z,997.85
2023-04-03T06:06:38.552Z,997.85
2023-04-03T06:07:38.482Z,997.87
2023-04-03T06:08:38.553Z,997.85
2023-04-03T06:09:38.587Z,997.87
2023-04-03T06:10:38.705Z,997.87
2023-04-03T06:11:38.449Z,997.87
2023-04-03T06:12:38.416Z,997.91
2023-04-03T06:13:38.375Z,997.91
2023-04-03T06:14:38.399Z,997.93
2023-04-03T06:15:38.380Z,997.97
2023-04-03T06:16:39.681Z,997.95
2023-04-03T06:17:38.383Z,997.99
2023-04-03T06:18:38.326Z,997.97
2023-04-03T06:19:38.332Z,997.97
2023-04-03T06:20:38.711Z,997.99
2023-04-03T06:21:38.977Z,997.99
2023-04-03T06:22:38.307Z,997.99
2023-04-03T06:23:38.983Z,997.99
2023-04-03T06:24:38.265Z,998.01
2023-04-03T06:25:38.314Z,998.01
2023-04-03T06:26:38.271Z,998.01
2023-04-03T06:27:37.490Z,997.99
2023-04-03T06:28:38.207Z,997.99
2023-04-03T06:29:38.214Z,998.03
2023-04-03T06:30:39.240Z,998.01
2023-04-03T06:31:38.204Z,998.01
2023-04-03T06:32:38.225Z,998.01
2023-04-03T06:33:38.118Z,998.01
2023-04-03T06:34:38.148Z,998.01
2023-04-03T06:35:37.470Z,998.01
2023-04-03T06:36:37.626Z,998.07
2023-04-03T06:37:38.117Z,998.05
2023-04-03T06:38:38.045Z,998.05
2023-04-03T06:39:38.056Z,998.07
2023-04-03T06:40:38.235Z,998.05
2023-04-03T06:41:38.028Z,998.07
2023-04-03T06:42:37.349Z,998.07
2023-04-03T06:43:37.996Z,998.09
2023-04-03T06:44:38.011Z,998.09
2023-04-03T06:45:38.153Z,998.11
2023-04-03T06:46:38.883Z,998.13
2023-04-03T06:47:37.974Z,998.11
2023-04-03T06:48:37.915Z,998.13
2023-04-03T06:49:37.934Z,998.13
2023-04-03T06:50:37.906Z,998.13
2023-04-03T06:51:37.910Z,998.11
2023-04-03T06:52:37.888Z,998.18
2023-04-03T06:53:37.853Z,998.18
2023-04-03T06:54:37.863Z,998.20
2023-04-03T06:55:37.983Z,998.22
2023-04-03T06:56:37.604Z,998.20
2023-04-03T06:57:37.844Z,998.22
2023-04-03T06:58:38.509Z,998.24
2023-04-03T06:59:37.724Z,998.22
2023-04-03T07:00:37.627Z,998.24
2023-04-03T07:01:38.495Z,998.24
2023-04-03T07:02:38.199Z,998.28
2023-04-03T07:03:37.737Z,998.24
2023-04-03T07:04:37.765Z,998.24
2023-04-03T07:05:37.997Z,998.24
2023-04-03T07:06:37.708Z,998.26
2023-04-03T07:07:38.410Z,998.26
2023-04-03T07:08:37.627Z,998.26
2023-04-03T07:09:37.674Z,998.28
2023-04-03T07:10:37.649Z,998.24
2023-04-03T07:11:38.366Z,998.24
2023-04-03T07:12:38.361Z,998.28
2023-04-03T07:13:38.353Z,998.28
2023-04-03T07:14:37.638Z,998.28
2023-04-03T07:15:38.398Z,998.30
2023-04-03T07:16:40.748Z,998.32
2023-04-03T07:17:38.308Z,998.30
2023-04-03T07:18:38.307Z,998.28
2023-04-03T07:19:38.256Z,998.26
2023-04-03T07:20:38.353Z,998.28
2023-04-03T07:21:38.234Z,998.30
2023-04-03T07:22:38.227Z,998.30
2023-04-03T07:23:38.206Z,998.36
2023-04-03T07:24:37.497Z,998.36
2023-04-03T07:25:37.623Z,998.34
2023-04-03T07:26:37.430Z,998.36
2023-04-03T07:27:37.413Z,998.34
2023-04-03T07:28:37.462Z,998.34
2023-04-03T07:29:37.434Z,998.34
2023-04-03T07:30:37.382Z,998.36
2023-04-03T07:31:37.406Z,998.36
2023-04-03T07:32:37.375Z,998.38
2023-04-03T07:33:37.356Z,998.40
2023-04-03T07:34:37.332Z,998.40
2023-04-03T07:35:38.495Z,998.36
2023-04-03T07:36:37.306Z,998.36
2023-04-03T07:37:37.258Z,998.42
2023-04-03T07:38:37.285Z,998.40
2023-04-03T07:39:37.255Z,998.42
2023-04-03T07:40:37.247Z,998.40
2023-04-03T07:41:37.922Z,998.44
2023-04-03T07:42:37.188Z,998.40
2023-04-03T07:43:37.199Z,998.42
2023-04-03T07:44:37.188Z,998.42
2023-04-03T07:45:37.483Z,998.42
2023-04-03T07:46:37.878Z,998.44
2023-04-03T07:47:37.166Z,998.42
2023-04-03T07:48:37.162Z,998.42
2023-04-03T07:49:37.109Z,998.48
2023-04-03T07:50:37.797Z,998.46
2023-04-03T07:51:37.078Z,998.46
2023-04-03T07:52:37.093Z,998.46
2023-04-03T07:53:37.101Z,998.46
2023-04-03T07:54:37.063Z,998.46
2023-04-03T07:55:37.260Z,998.48
2023-04-03T07:56:37.704Z,998.48
2023-04-03T07:57:37.045Z,998.46
2023-04-03T07:58:36.993Z,998.46
2023-04-03T07:59:36.972Z,998.50
2023-04-03T08:00:36.965Z,998.50
2023-04-03T08:01:36.948Z,998.52
2023-04-03T08:02:37.640Z,998.54
2023-04-03T08:03:36.730Z,998.54
2023-04-03T08:04:36.755Z,998.50
2023-04-03T08:05:36.910Z,998.52
2023-04-03T08:06:45.954Z,998.52
2023-04-03T08:07:37.696Z,998.50
2023-04-03T08:08:36.853Z,998.54
2023-04-03T08:09:36.121Z,998.58
2023-04-03T08:10:36.130Z,998.58
2023-04-03T08:11:36.120Z,998.58
2023-04-03T08:12:36.121Z,998.56
2023-04-03T08:13:36.780Z,998.54
2023-04-03T08:14:36.823Z,998.54
2023-04-03T08:15:36.911Z,998.52
2023-04-03T08:16:36.789Z,998.50
2023-04-03T08:17:36.115Z,998.48
2023-04-03T08:18:36.694Z,998.46
2023-04-03T08:19:36.072Z,998.44
2023-04-03T08:20:36.682Z,998.48
2023-04-03T08:21:36.669Z,998.48
2023-04-03T08:22:36.668Z,998.50
2023-04-03T08:23:36.639Z,998.48
2023-04-03T08:24:39.114Z,998.48
2023-04-03T08:25:37.485Z,998.44
2023-04-03T08:26:36.610Z,998.46
2023-04-03T08:27:36.610Z,998.46
2023-04-03T08:28:36.556Z,998.50
2023-04-03T08:29:36.632Z,998.48
2023-04-03T08:30:36.557Z,998.50
2023-04-03T08:31:36.566Z,998.48
2023-04-03T08:32:36.543Z,998.50
2023-04-03T08:33:36.493Z,998.50
2023-04-03T08:34:36.498Z,998.48
2023-04-03T08:35:38.140Z,998.50
2023-04-03T08:36:36.659Z,998.44
2023-04-03T08:37:36.447Z,998.44
2023-04-03T08:38:37.245Z,998.44
2023-04-03T08:39:36.155Z,998.40
2023-04-03T08:40:37.098Z,998.38
2023-04-03T08:41:36.389Z,998.40
2023-04-03T08:42:37.056Z,998.42
2023-04-03T08:43:36.367Z,998.40
2023-04-03T08:44:37.388Z,998.38
2023-04-03T08:45:36.553Z,998.40
2023-04-03T08:46:36.334Z,998.36
2023-04-03T08:47:36.618Z,998.40
2023-04-03T08:48:37.029Z,998.44
2023-04-03T08:49:36.375Z,998.46
2023-04-03T08:50:36.445Z,998.42
2023-04-03T08:51:36.262Z,998.44
2023-04-03T08:52:36.275Z,998.46
2023-04-03T08:53:36.225Z,998.50
2023-04-03T08:54:36.214Z,998.44
2023-04-03T08:55:37.062Z,998.42
2023-04-03T08:56:36.410Z,998.46
2023-04-03T08:57:36.353Z,998.48
2023-04-03T08:58:35.663Z,998.48
2023-04-03T08:59:36.816Z,998.50
2023-04-03T09:00:35.724Z,998.50
2023-04-03T09:01:36.209Z,998.50
2023-04-03T09:02:36.202Z,998.46
2023-04-03T09:03:36.108Z,998.46
2023-04-03T09:04:36.067Z,998.50
2023-04-03T09:05:36.191Z,998.48
2023-04-03T09:06:37.693Z,998.46
2023-04-03T09:07:36.055Z,998.44
2023-04-03T09:08:36.018Z,998.44
2023-04-03T09:09:36.035Z,998.50
2023-04-03T09:10:36.187Z,998.52
2023-04-03T09:11:36.023Z,998.48
2023-04-03T09:12:35.976Z,998.48
2023-04-03T09:13:35.667Z,998.52
2023-04-03T09:14:35.644Z,998.54
2023-04-03T09:15:39.142Z,998.46
2023-04-03T09:16:35.691Z,998.38
2023-04-03T09:17:35.992Z,998.40
2023-04-03T09:18:35.869Z,998.42
2023-04-03T09:19:35.911Z,998.40
2023-04-03T09:20:36.097Z,998.40
2023-04-03T09:21:35.757Z,998.40
2023-04-03T09:22:39.286Z,998.38
2023-04-03T09:23:36.811Z,998.42
2023-04-03T09:24:35.095Z,998.42
2023-04-03T09:25:35.198Z,998.44
2023-04-03T09:26:35.783Z,998.44
2023-04-03T09:27:35.788Z,998.46
2023-04-03T09:28:42.879Z,998.42
2023-04-03T09:29:37.461Z,998.40
2023-04-03T09:30:35.850Z,998.40
2023-04-03T09:31:36.454Z,998.42
2023-04-03T09:32:36.459Z,998.46
2023-04-03T09:33:36.402Z,998.50
2023-04-03T09:34:36.417Z,998.50
2023-04-03T09:35:47.388Z,998.46
2023-04-03T09:36:36.651Z,998.48
2023-04-03T09:37:36.328Z,998.48
2023-04-03T09:38:35.624Z,998.44
2023-04-03T09:39:36.347Z,998.48
2023-04-03T09:40:36.682Z,998.44
2023-04-03T09:41:35.559Z,998.44
2023-04-03T09:42:36.278Z,998.44
2023-04-03T09:43:35.538Z,998.42
2023-04-03T09:44:36.274Z,998.36
2023-04-03T09:45:35.513Z,998.36
2023-04-03T09:46:35.543Z,998.38
2023-04-03T09:47:35.502Z,998.40
2023-04-03T09:48:35.480Z,998.38
2023-04-03T09:49:35.440Z,998.38
2023-04-03T09:50:36.332Z,998.38
2023-04-03T09:51:35.416Z,998.38
2023-04-03T09:52:36.933Z,998.40
2023-04-03T09:53:35.386Z,998.38
2023-04-03T09:54:34.656Z,998.34
2023-04-03T09:55:35.349Z,998.36
2023-04-03T09:56:35.348Z,998.40
2023-04-03T09:57:35.444Z,998.38
2023-04-03T09:58:46.806Z,998.36
2023-04-03T09:59:36.331Z,998.36
2023-04-03T10:00:35.283Z,998.34
2023-04-03T10:01:35.344Z,998.34
2023-04-03T10:02:35.344Z,998.34
2023-04-03T10:03:35.252Z,998.34
2023-04-03T10:04:35.324Z,998.34
2023-04-03T10:05:35.210Z,998.36
2023-04-03T10:06:35.278Z,998.34
2023-04-03T10:07:35.195Z,998.40
2023-04-03T10:08:35.184Z,998.38
2023-04-03T10:09:35.244Z,998.34
2023-04-03T10:10:35.185Z,998.28
2023-04-03T10:11:35.194Z,998.30
2023-04-03T10:12:35.139Z,998.34
2023-04-03T10:13:45.204Z,998.40
2023-04-03T10:14:36.100Z,998.38
2023-04-03T10:15:35.059Z,998.38
2023-04-03T10:16:35.149Z,998.36
2023-04-03T10:17:35.073Z,998.38
2023-04-03T10:18:35.109Z,998.40
2023-04-03T10:19:35.033Z,998.42
2023-04-03T10:20:34.980Z,998.44
2023-04-03T10:21:34.811Z,998.38
2023-04-03T10:22:35.666Z,998.34
2023-04-03T10:23:34.254Z,998.38
2023-04-03T10:24:34.967Z,998.36
2023-04-03T10:25:34.926Z,998.32
2023-04-03T10:26:34.228Z,998.34
2023-04-03T10:27:34.303Z,998.32
2023-04-03T10:28:34.902Z,998.30
2023-04-03T10:29:34.886Z,998.28
2023-04-03T10:30:34.997Z,998.28
2023-04-03T10:31:34.274Z,998.26
2023-04-03T10:32:34.867Z,998.26
2023-04-03T10:33:34.835Z,998.28
2023-04-03T10:34:34.233Z,998.26
2023-04-03T10:35:34.805Z,998.24
2023-04-03T10:36:34.813Z,998.28
2023-04-03T10:37:35.006Z,998.30
2023-04-03T10:38:34.769Z,998.30
2023-04-03T10:39:34.135Z,998.30
2023-04-03T10:40:34.716Z,998.32
2023-04-03T10:41:34.723Z,998.30
2023-04-03T10:42:34.706Z,998.28
2023-04-03T10:43:34.708Z,998.26
2023-04-03T10:44:34.673Z,998.26
2023-04-03T10:45:35.349Z,998.24
2023-04-03T10:46:35.500Z,998.22
2023-04-03T10:47:37.247Z,998.24
2023-04-03T10:48:34.629Z,998.26
2023-04-03T10:49:34.615Z,998.28
2023-04-03T10:50:34.564Z,998.26
2023-04-03T10:51:34.583Z,998.26
2023-04-03T10:52:34.575Z,998.28
2023-04-03T10:53:34.555Z,998.26
2023-04-03T10:54:35.212Z,998.24
2023-04-03T10:55:34.258Z,998.28
2023-04-03T10:56:34.483Z,998.18
2023-04-03T10:57:34.563Z,998.17
2023-04-03T10:58:34.487Z,998.15
2023-04-03T10:59:34.523Z,998.17
2023-04-03T11:00:34.475Z,998.20
2023-04-03T11:01:34.496Z,998.22
2023-04-03T11:02:34.516Z,998.20
2023-04-03T11:03:34.544Z,998.17
2023-04-03T11:04:34.406Z,998.17
2023-04-03T11:05:35.065Z,998.15
2023-04-03T11:06:34.344Z,998.09
2023-04-03T11:07:34.357Z,998.11
2023-04-03T11:08:34.431Z,998.07
2023-04-03T11:09:34.346Z,998.13
2023-04-03T11:10:34.993Z,998.15
2023-04-03T11:11:34.288Z,998.17
2023-04-03T11:12:34.285Z,998.17
2023-04-03T11:13:34.278Z,998.18
2023-04-03T11:14:34.506Z,998.20
2023-04-03T11:15:33.827Z,998.17
2023-04-03T11:16:43.358Z,998.18
2023-04-03T11:17:35.338Z,998.13
2023-04-03T11:18:34.907Z,998.11
2023-04-03T11:19:34.198Z,998.13
2023-04-03T11:20:34.915Z,998.11
2023-04-03T11:21:33.954Z,998.11
2023-04-03T11:22:34.138Z,998.13
2023-04-03T11:23:45.782Z,998.17
2023-04-03T11:24:35.124Z,998.15
2023-04-03T11:25:34.124Z,998.18
2023-04-03T11:26:34.116Z,998.17
2023-04-03T11:27:34.065Z,998.17
2023-04-03T11:28:34.069Z,998.13
2023-04-03T11:29:35.805Z,998.11
2023-04-03T11:30:33.714Z,998.09
2023-04-03T11:31:34.737Z,998.07
2023-04-03T11:32:34.730Z,998.09
2023-04-03T11:33:34.006Z,998.09
2023-04-03T11:34:33.981Z,998.07
2023-04-03T11:35:33.786Z,998.07
2023-04-03T11:36:34.783Z,998.11
2023-04-03T11:37:33.227Z,998.09
2023-04-03T11:38:33.931Z,998.07
2023-04-03T11:39:33.925Z,998.09
2023-04-03T11:40:33.169Z,998.07
2023-04-03T11:41:33.887Z,998.09
2023-04-03T11:42:34.716Z,998.07
2023-04-03T11:43:33.854Z,998.03
2023-04-03T11:44:33.852Z,997.99
2023-04-03T11:45:34.595Z,998.03
2023-04-03T11:46:33.300Z,998.07
2023-04-03T11:47:33.822Z,998.05
2023-04-03T11:48:34.582Z,998.01
2023-04-03T11:49:34.513Z,997.99
2023-04-03T11:50:34.503Z,998.01
2023-04-03T11:51:34.480Z,998.01
2023-04-03T11:52:34.473Z,997.99
2023-04-03T11:53:34.435Z,997.97
2023-04-03T11:54:38.612Z,998.03
2023-04-03T11:55:34.821Z,998.03
2023-04-03T11:56:34.430Z,998.07
2023-04-03T11:57:34.490Z,998.03
2023-04-03T11:58:34.376Z,998.05
2023-04-03T11:59:33.634Z,998.09
2023-04-03T12:00:33.658Z,998.03
2023-04-03T12:01:33.616Z,997.93
2023-04-03T12:02:38.554Z,997.91
2023-04-03T12:03:34.668Z,997.89
2023-04-03T12:04:33.612Z,997.93
2023-04-03T12:05:33.564Z,997.89
2023-04-03T12:06:33.597Z,997.85
2023-04-03T12:07:33.403Z,997.87
2023-04-03T12:08:33.512Z,997.93
2023-04-03T12:09:33.510Z,997.95
2023-04-03T12:10:34.156Z,997.93
2023-04-03T12:11:33.138Z,997.93
2023-04-03T12:12:33.457Z,997.93
2023-04-03T12:13:33.450Z,997.91
2023-04-03T12:14:32.811Z,997.91
2023-04-03T12:15:33.420Z,997.89
2023-04-03T12:16:34.103Z,997.85
2023-04-03T12:17:33.398Z,997.91
2023-04-03T12:18:32.653Z,997.91
2023-04-03T12:19:42.349Z,997.93
2023-04-03T12:20:33.664Z,997.91
2023-04-03T12:21:33.339Z,997.89
2023-04-03T12:22:33.317Z,997.89
2023-04-03T12:23:33.313Z,997.87
2023-04-03T12:24:33.301Z,997.93
2023-04-03T12:25:33.282Z,997.91
2023-04-03T12:26:42.127Z,997.91
2023-04-03T12:27:34.245Z,997.89
2023-04-03T12:28:33.202Z,997.93